Neptune Avra — 9HKH6 — position and weather

sailwx.info

Track history (hours):
 
Tides and Currents Weather Stations Pressure Air Temp Water Temp Dewpoint Dewpoint Depression Visibility Wind Speed Wind Dir Waves Ship Positions

Neptune Avra

Last reported at 2018-Feb-19 14:41 UTC. Time now 2018-Feb-19 23:54 UTC.
Position N 41°21' E 002°22'.

Length 155 m; draft 6.2 m.

Type: Cargo ship. MMSI: 248598000.

Date/timePositionNaut miles runAvg speedWind from/ knotsBaromVisibWave heightAir tempDewpointWater temp
2018-Feb-19 14:41N 41°21' E 002°22'316.2
2018-Feb-19 14:30N 41°20' E 002°19'714.1
2018-Feb-19 14:00N 41°16' E 002°11'4 8.5
2018-Feb-19 13:30N 41°20' E 002°09'1 1.1
2018-Feb-19 12:56N 41°20' E 002°09'0 0.0
2018-Feb-19 12:19N 41°20' E 002°09'0 0.0
2018-Feb-19 10:28N 41°20' E 002°09'0 0.0
2018-Feb-19 09:50N 41°20' E 002°09'0 0.0
2018-Feb-19 09:30N 41°20' E 002°09'0 0.0
2018-Feb-19 08:58N 41°20' E 002°09'12 1.9
2018-Feb-19 02:39N 41°11' E 001°58'210.7
2018-Feb-19 02:30N 41°11' E 001°56'610.8
2018-Feb-19 01:58N 41°08' E 001°50'511.0
2018-Feb-19 01:28N 41°05' E 001°43'22814.1
2018-Feb-18 09:19N 37°40' W 000°27'1915.6
2018-Feb-18 08:05N 37°27' W 000°44'115.8
2018-Feb-18 08:00N 37°27' W 000°46'13 0.3
2018-Feb-16 14:35N 37°25' W 001°02'418.5
2018-Feb-16 14:24N 37°26' W 000°58'818.2
2018-Feb-16 13:58N 37°28' W 000°49'1217.9
2018-Feb-16 13:18N 37°34' W 000°35'516.1
2018-Feb-16 12:59N 37°39' W 000°33'1117.4
2018-Feb-16 12:21N 37°49' W 000°31'717.6
2018-Feb-16 11:59N 37°56' W 000°29'39618.3
2018-Feb-15 14:22N 43°10' E 004°49'917.5
2018-Feb-15 13:52N 43°17' E 004°56'513.5
2018-Feb-15 13:30N 43°21' E 004°58'4 0.4
2018-Feb-15 04:01N 43°24' E 004°53'010.9
2018-Feb-15 04:00N 43°24' E 004°53'510.3
2018-Feb-15 03:30N 43°21' E 004°58'16715.8
2018-Feb-14 16:58N 41°21' E 002°21'817.4
2018-Feb-14 16:30N 41°17' E 002°12'4 8.2
2018-Feb-14 16:00N 41°21' E 002°09'0 0.0
2018-Feb-13 22:40N 41°20' E 002°09'0 0.0
2018-Feb-13 21:30N 41°20' E 002°09'0 0.1
2018-Feb-13 20:55N 41°20' E 002°09'0 0.2
2018-Feb-13 20:30N 41°20' E 002°09'1 2.8
2018-Feb-13 20:00N 41°19' E 002°10'5 9.3
2018-Feb-13 19:30N 41°14' E 002°11'24817.1
2018-Feb-13 05:01N 37°38' W 000°26'018.5
2018-Feb-13 04:59N 37°38' W 000°26'1917.7
2018-Feb-13 03:54N 37°25' W 000°44'23410.8
2018-Feb-12 06:18N 36°00' W 005°16'619.2
2018-Feb-12 06:00N 35°58' W 005°22'4 0.2
2018-Feb-11 13:12N 35°59' W 005°27'315.1
2018-Feb-11 12:58N 36°01' W 005°23'24915.7
2018-Feb-10 21:06N 37°33' W 000°34'218.9
2018-Feb-10 21:00N 37°34' W 000°32'41816.7
2018-Feb-09 20:00N 43°15' E 004°46'  
Track history (hours):
 
Tides and Currents Weather Stations Pressure Air Temp Water Temp Dewpoint Dewpoint Depression Visibility Wind Speed Wind Dir Waves Ship Positions

Neptune Avra

Last reported at 2018-Feb-19 14:41 UTC. Time now 2018-Feb-19 23:54 UTC.
Position N 41°21' E 002°22'.

Length 155 m; draft 6.2 m.

Type: Cargo ship. MMSI: 248598000.

Date/timePositionNaut miles runAvg speedWind from/ knotsBaromVisibWave heightAir tempDewpointWater temp
2018-Feb-19 14:41N 41°21' E 002°22'316.2
2018-Feb-19 14:30N 41°20' E 002°19'714.1
2018-Feb-19 14:00N 41°16' E 002°11'4 8.5
2018-Feb-19 13:30N 41°20' E 002°09'1 1.1
2018-Feb-19 12:56N 41°20' E 002°09'0 0.0
2018-Feb-19 12:19N 41°20' E 002°09'0 0.0
2018-Feb-19 10:28N 41°20' E 002°09'0 0.0
2018-Feb-19 09:50N 41°20' E 002°09'0 0.0
2018-Feb-19 09:30N 41°20' E 002°09'0 0.0
2018-Feb-19 08:58N 41°20' E 002°09'12 1.9
2018-Feb-19 02:39N 41°11' E 001°58'210.7
2018-Feb-19 02:30N 41°11' E 001°56'610.8
2018-Feb-19 01:58N 41°08' E 001°50'511.0
2018-Feb-19 01:28N 41°05' E 001°43'22814.1
2018-Feb-18 09:19N 37°40' W 000°27'1915.6
2018-Feb-18 08:05N 37°27' W 000°44'115.8
2018-Feb-18 08:00N 37°27' W 000°46'13 0.3
2018-Feb-16 14:35N 37°25' W 001°02'418.5
2018-Feb-16 14:24N 37°26' W 000°58'818.2
2018-Feb-16 13:58N 37°28' W 000°49'1217.9
2018-Feb-16 13:18N 37°34' W 000°35'516.1
2018-Feb-16 12:59N 37°39' W 000°33'1117.4
2018-Feb-16 12:21N 37°49' W 000°31'717.6
2018-Feb-16 11:59N 37°56' W 000°29'39618.3
2018-Feb-15 14:22N 43°10' E 004°49'917.5
2018-Feb-15 13:52N 43°17' E 004°56'513.5
2018-Feb-15 13:30N 43°21' E 004°58'4 0.4
2018-Feb-15 04:01N 43°24' E 004°53'010.9
2018-Feb-15 04:00N 43°24' E 004°53'510.3
2018-Feb-15 03:30N 43°21' E 004°58'16715.8
2018-Feb-14 16:58N 41°21' E 002°21'817.4
2018-Feb-14 16:30N 41°17' E 002°12'4 8.2
2018-Feb-14 16:00N 41°21' E 002°09'0 0.0
2018-Feb-13 22:40N 41°20' E 002°09'0 0.0
2018-Feb-13 21:30N 41°20' E 002°09'0 0.1
2018-Feb-13 20:55N 41°20' E 002°09'0 0.2
2018-Feb-13 20:30N 41°20' E 002°09'1 2.8
2018-Feb-13 20:00N 41°19' E 002°10'5 9.3
2018-Feb-13 19:30N 41°14' E 002°11'24817.1
2018-Feb-13 05:01N 37°38' W 000°26'018.5
2018-Feb-13 04:59N 37°38' W 000°26'1917.7
2018-Feb-13 03:54N 37°25' W 000°44'23410.8
2018-Feb-12 06:18N 36°00' W 005°16'619.2
2018-Feb-12 06:00N 35°58' W 005°22'4 0.2
2018-Feb-11 13:12N 35°59' W 005°27'315.1
2018-Feb-11 12:58N 36°01' W 005°23'24915.7
2018-Feb-10 21:06N 37°33' W 000°34'218.9
2018-Feb-10 21:00N 37°34' W 000°32'41816.7
2018-Feb-09 20:00N 43°15' E 004°46'  

Dump ship's entire track history